Flight Track Log - Related Links

Times and Time Zones

All times are in EDT time to prevent confusion due to time zone crossing. See the SWA1245 flight status page for this flight to view local times or setup timezone preferences in your user account.

Time Position Orientation Groundspeed Altitude Reporting Facility
EDT Latitude Longitude Course Direction KTS MPH feet Rate Location/Type
Tue 12:14:02 PM 33.9383 -118.5275 264° West 222 255 3,500  Level Los Angeles Center
Tue 12:15:04 PM 33.9125 -118.5936 245° Southwest 244 281 6,200 2,516 Climbing Los Angeles Center
Tue 12:16:06 PM 33.8717 -118.5264 126° Southeast 288 331 8,700 2,371 Climbing Los Angeles Center
Tue 12:17:08 PM 33.9219 -118.4531 50° Northeast 287 330 11,100 2,162 Climbing Los Angeles Center
Tue 12:18:22 PM 33.9736 -118.3619 56° Northeast 294 338 13,600 1,809 Climbing Los Angeles Center
Tue 12:19:24 PM 34.0403 -118.2447 56° Northeast 351 404 15,200 1,839 Climbing Los Angeles Center
Tue 12:20:26 PM 34.0975 -118.1431 56° Northeast 363 418 17,400 1,824 Climbing Los Angeles Center
Tue 12:21:29 PM 34.1569 -118.0381 56° Northeast 377 434 19,000 1,714 Climbing Los Angeles Center
Tue 12:22:32 PM 34.2181 -117.9300 56° Northeast 388 447 21,000 1,790 Climbing Los Angeles Center
Tue 12:23:33 PM 34.2786 -117.8217 56° Northeast 390 449 22,700 1,512 Climbing Los Angeles Center
Tue 12:24:35 PM 34.3411 -117.7094 56° Northeast 400 460 24,100 1,597 Climbing Los Angeles Center
Tue 12:25:37 PM 34.4167 -117.5728 56° Northeast 406 467 26,000 1,597 Climbing Los Angeles Center
Tue 12:26:39 PM 34.4806 -117.4586 56° Northeast 409 471 27,400 1,548 Climbing Los Angeles Center
Tue 12:27:41 PM 34.5436 -117.3444 56° Northeast 410 472 29,200 1,065 Climbing Los Angeles Center
Tue 12:28:43 PM 34.6061 -117.2308 56° Northeast 406 467 29,600 581 Climbing Los Angeles Center
Tue 12:29:45 PM 34.6733 -117.1092 56° Northeast 429 494 30,400 1,065 Climbing Los Angeles Center
Tue 12:30:47 PM 34.7397 -116.9886 56° Northeast 429 494 31,800 1,210 Climbing Los Angeles Center
Tue 12:31:49 PM 34.8183 -116.8442 56° Northeast 424 488 32,900 581 Climbing Los Angeles Center
Tue 12:32:51 PM 34.8833 -116.7236 57° Northeast 426 490 33,000 48 Climbing Los Angeles Center
Tue 12:33:53 PM 34.9497 -116.6014 56° Northeast 431 496 33,000  Level Los Angeles Center
Tue 12:34:55 PM 35.0297 -116.4944 48° Northeast 431 496 33,000  Level Los Angeles Center
Tue 12:35:57 PM 35.1122 -116.3892 46° Northeast 429 494 33,000  Level Los Angeles Center
Tue 12:36:59 PM 35.1997 -116.2836 45° Northeast 428 493 33,000  Level Los Angeles Center
Tue 12:38:01 PM 35.2967 -116.1594 46° Northeast 430 495 33,000  Level Los Angeles Center
Tue 12:39:03 PM 35.3800 -116.0536 46° Northeast 432 497 33,000  Level Los Angeles Center
Tue 12:40:05 PM 35.4672 -115.9481 45° Northeast 430 495 33,000  Level Los Angeles Center
Tue 12:41:07 PM 35.5531 -115.8383 46° Northeast 434 499 33,000  Level Los Angeles Center
Tue 12:42:09 PM 35.6361 -115.7308 46° Northeast 435 501 33,000  Level Los Angeles Center
Tue 12:43:11 PM 35.7217 -115.6222 46° Northeast 439 505 33,000  Level Los Angeles Center
Tue 12:44:13 PM 35.8081 -115.5103 46° Northeast 448 516 33,000  Level Los Angeles Center
Tue 12:45:15 PM 35.9097 -115.3744 47° Northeast 451 519 33,000  Level Los Angeles Center
Tue 12:46:18 PM 35.9511 -115.2258 71° East 460 529 33,000  Level Los Angeles Center
Tue 12:47:20 PM 35.9833 -115.0767 75° East 457 526 33,000  Level Los Angeles Center
Tue 12:48:22 PM 36.0142 -114.9231 76° East 462 532 33,000 97 Level Los Angeles Center
Tue 12:49:24 PM 36.0442 -114.7708 76° East 460 529 33,200 629 Climbing Los Angeles Center
Tue 12:50:26 PM 36.0800 -114.5878 76° East 458 527 34,300 871 Climbing Los Angeles Center
Tue 12:51:28 PM 36.1114 -114.4381 75° East 454 522 35,000 339 Climbing Los Angeles Center
Tue 12:52:30 PM 36.1406 -114.2864 77° East 456 525 35,000  Level Los Angeles Center
Tue 12:53:32 PM 36.1706 -114.1353 76° East 454 522 35,000  Level Los Angeles Center
Tue 12:54:34 PM 36.1994 -113.9836 77° East 454 522 35,000  Level Los Angeles Center
Tue 12:55:37 PM 36.2289 -113.8322 76° East 454 522 35,000  Level Los Angeles Center
Tue 12:56:39 PM 36.2636 -113.6497 77° East 455 524 35,000  Level Los Angeles Center
Tue 12:57:41 PM 36.2933 -113.4972 76° East 455 524 35,000  Level Los Angeles Center
Tue 12:58:43 PM 36.3214 -113.3442 77° East 456 525 35,000  Level Los Angeles Center
Tue 12:59:45 PM 36.3517 -113.1811 77° East 456 525 35,000  Level Los Angeles Center
Tue 01:00:47 PM 36.3794 -113.0297 77° East 454 522 35,000  Level Los Angeles Center
Tue 01:01:49 PM 36.4072 -112.8789 77° East 452 520 35,000  Level Los Angeles Center
Tue 01:02:51 PM 36.4353 -112.7261 77° East 455 524 35,000  Level Los Angeles Center
Tue 01:03:54 PM 36.4689 -112.5422 77° East 457 526 35,000  Level Los Angeles Center
Tue 01:04:56 PM 36.4953 -112.3919 78° East 452 520 35,000  Level Los Angeles Center
Tue 01:05:58 PM 36.5231 -112.2394 77° East 454 522 35,000  Level Los Angeles Center
Tue 01:07:00 PM 36.5500 -112.0867 78° East 455 524 35,000  Level Los Angeles Center
Tue 01:08:02 PM 36.5767 -111.9328 78° East 456 525 35,000  Level Los Angeles Center
Tue 01:08:46 PM 36.5986 -111.8094 77° East 457 526 35,000  Level Denver Center
Tue 01:09:48 PM 36.6250 -111.6544 78° East 460 529 35,000  Level Denver Center
Tue 01:10:50 PM 36.6525 -111.4989 78° East 462 532 35,000  Level Denver Center
Tue 01:11:53 PM 36.6842 -111.3131 78° East 459 528 35,000  Level Denver Center
Tue 01:12:55 PM 36.7097 -111.1572 78° East 460 529 35,000  Level Denver Center
Tue 01:13:56 PM 36.7308 -111.0336 78° East 459 528 35,000  Level Denver Center
Tue 01:14:59 PM 36.7608 -110.8472 79° East 459 528 35,000  Level Denver Center
Tue 01:16:01 PM 36.7864 -110.6906 78° East 461 531 35,000  Level Denver Center
Tue 01:17:03 PM 36.8128 -110.5339 78° East 463 533 35,000  Level Denver Center
Tue 01:18:05 PM 36.8419 -110.3456 79° East 463 533 35,000  Level Denver Center
Tue 01:19:07 PM 36.8675 -110.1872 79° East 466 536 35,000  Level Denver Center
Tue 01:20:08 PM 36.8889 -110.0506 79° East 465 535 35,000  Level Denver Center
Tue 01:21:11 PM 36.9172 -109.8739 79° East 465 535 35,000  Level Denver Center
Tue 01:22:13 PM 36.9436 -109.6992 79° East 459 528 35,000  Level Denver Center
Tue 01:23:15 PM 36.9672 -109.5492 79° East 459 528 35,000  Level Denver Center
Tue 01:24:17 PM 36.9933 -109.3758 79° East 454 522 35,000  Level Denver Center
Tue 01:25:19 PM 37.0158 -109.2261 79° East 456 525 35,000  Level Denver Center
Tue 01:26:21 PM 37.0414 -109.0506 80° East 458 527 35,000  Level Denver Center
Tue 01:27:23 PM 37.0639 -108.9011 79° East 456 525 35,000  Level Denver Center
Tue 01:28:25 PM 37.0897 -108.7239 80° East 461 531 35,000  Level Denver Center
Tue 01:29:27 PM 37.1111 -108.5739 80° East 458 527 35,000  Level Denver Center
Tue 01:30:29 PM 37.1336 -108.4222 79° East 460 529 35,000  Level Denver Center
Tue 01:31:31 PM 37.1589 -108.2456 80° East 460 529 35,000  Level Denver Center
Tue 01:32:33 PM 37.1797 -108.0925 80° East 461 531 35,000  Level Denver Center
Tue 01:33:35 PM 37.2042 -107.9161 80° East 460 529 35,000  Level Denver Center
Tue 01:34:37 PM 37.2256 -107.7650 80° East 461 531 35,000  Level Denver Center
Tue 01:35:51 PM 37.2472 -107.5883 81° East 459 528 35,000  Level Denver Center
Tue 01:36:53 PM 37.2283 -107.4103 98° East 461 531 35,000  Level Denver Center
Tue 01:37:55 PM 37.2008 -107.2347 101° East 459 528 35,000  Level Denver Center
Tue 01:38:57 PM 37.1792 -107.0839 100° East 457 526 35,000  Level Denver Center
Tue 01:39:59 PM 37.1275 -106.9194 111° Southeast 453 521 35,000  Level Denver Center
Tue 01:41:01 PM 37.0769 -106.7814 115° Southeast 454 522 35,000  Level Denver Center
Tue 01:42:03 PM 37.0172 -106.6233 115° Southeast 450 518 35,000  Level Denver Center
Tue 01:43:05 PM 36.9694 -106.4858 113° Southeast 450 518 35,000  Level Denver Center
Tue 01:44:07 PM 36.9789 -106.3389 85° East 446 513 35,000  Level Denver Center
Tue 01:45:09 PM 37.0083 -106.1692 78° East 446 513 35,000  Level Denver Center
Tue 01:46:11 PM 37.0319 -106.0244 78° East 445 512 35,000  Level Denver Center
Tue 01:47:13 PM 37.0592 -105.8547 79° East 446 513 35,000  Level Denver Center
Tue 01:48:15 PM 37.0839 -105.6925 79° East 446 513 35,000  Level Denver Center
Tue 01:49:16 PM 37.1081 -105.5472 78° East 446 513 35,000  Level Denver Center
Tue 01:50:18 PM 37.1339 -105.3761 79° East 448 516 35,000  Level Denver Center
Tue 01:51:20 PM 37.1550 -105.2292 80° East 448 516 35,000  Level Denver Center
Tue 01:52:22 PM 37.1817 -105.0592 79° East 446 513 35,000  Level Denver Center
Tue 01:53:24 PM 37.2033 -104.9139 79° East 445 512 35,000  Level Denver Center
Tue 01:54:26 PM 37.2242 -104.7689 80° East 443 510 35,000  Level Denver Center
Tue 01:55:28 PM 37.2469 -104.6086 80° East 441 507 35,000  Level Denver Center
Tue 01:56:30 PM 37.2653 -104.4803 80° East 441 507 35,000  Level Denver Center
Tue 01:57:32 PM 37.2931 -104.2883 80° East 440 506 35,000  Level Denver Center
Tue 01:58:34 PM 37.3128 -104.1450 80° East 439 505 35,000  Level Denver Center
Tue 01:59:36 PM 37.3361 -103.9772 80° East 441 507 35,000  Level Denver Center
Tue 02:00:38 PM 37.3567 -103.8336 80° East 443 510 35,000  Level Denver Center
Tue 02:01:40 PM 37.3800 -103.6650 80° East 443 510 35,000  Level Denver Center
Tue 02:02:42 PM 37.4000 -103.5206 80° East 442 509 35,000  Level Denver Center
Tue 02:03:44 PM 37.4228 -103.3514 80° East 441 507 35,000  Level Denver Center
Tue 02:04:46 PM 37.4422 -103.2061 80° East 441 507 35,000  Level Denver Center
Tue 02:05:48 PM 37.4650 -103.0372 80° East 440 506 35,000  Level Denver Center
Tue 02:06:50 PM 37.4839 -102.8894 81° East 443 510 35,000  Level Denver Center
Tue 02:07:51 PM 37.5039 -102.7425 80° East 444 511 35,000  Level Denver Center
Tue 02:08:53 PM 37.5253 -102.5711 81° East 444 511 35,000  Level Denver Center
Tue 02:09:55 PM 37.5469 -102.3986 81° East 442 509 35,000  Level Denver Center
Tue 02:10:57 PM 37.5617 -102.2758 81° East 443 510 35,000  Level Denver Center
Tue 02:11:59 PM 37.5864 -102.0797 81° East 443 510 35,000  Level Denver Center
Tue 02:13:01 PM 37.6042 -101.9322 81° East 445 512 35,000  Level Denver Center
Tue 02:14:03 PM 37.6222 -101.7844 81° East 444 511 35,000  Level Denver Center
Tue 02:15:25 PM 37.6497 -101.5619 81° East 446 513 35,000  Level Kansas City Center
Tue 02:16:27 PM 37.6675 -101.4131 81° East 448 516 35,000  Level Kansas City Center
Tue 02:17:29 PM 37.6875 -101.2392 82° East 448 516 35,000  Level Kansas City Center
Tue 02:18:31 PM 37.7047 -101.0861 82° East 448 516 35,000  Level Kansas City Center
Tue 02:19:33 PM 37.7222 -100.9303 82° East 448 516 35,000  Level Kansas City Center
Tue 02:20:35 PM 37.7414 -100.7728 81° East 450 518 35,000  Level Kansas City Center
Tue 02:21:37 PM 37.7581 -100.6161 82° East 451 519 35,000  Level Kansas City Center
Tue 02:22:39 PM 37.7775 -100.4317 82° East 448 516 35,000  Level Kansas City Center
Tue 02:23:41 PM 37.7947 -100.2822 82° East 449 517 35,000  Level Kansas City Center
Tue 02:24:43 PM 37.8131 -100.1067 82° East 451 519 35,000  Level Kansas City Center
Tue 02:25:45 PM 37.8283 -99.9569 83° East 449 517 35,000  Level Kansas City Center
Tue 02:26:47 PM 37.8458 -99.7825 83° East 448 516 35,000  Level Kansas City Center
Tue 02:27:49 PM 37.8619 -99.6342 82° East 446 513 35,000  Level Kansas City Center
Tue 02:28:51 PM 37.8767 -99.4803 83° East 448 516 35,000  Level Kansas City Center
Tue 02:29:53 PM 37.8931 -99.3244 82° East 447 514 35,000  Level Kansas City Center
Tue 02:30:55 PM 37.9075 -99.1692 83° East 444 511 35,000  Level Kansas City Center
Tue 02:31:57 PM 37.9258 -98.9825 83° East 445 512 35,000  Level Kansas City Center
Tue 02:32:59 PM 37.9414 -98.8269 83° East 446 513 35,000  Level Kansas City Center
Tue 02:34:01 PM 37.9564 -98.6711 83° East 445 512 35,000  Level Kansas City Center
Tue 02:35:03 PM 37.9708 -98.5161 83° East 445 512 35,000  Level Kansas City Center
Tue 02:36:05 PM 37.9856 -98.3589 83° East 447 514 35,000  Level Kansas City Center
Tue 02:37:07 PM 38.0003 -98.2031 83° East 443 510 35,000  Level Kansas City Center
Tue 02:38:10 PM 38.0158 -98.0178 84° East 443 510 35,000  Level Kansas City Center
Tue 02:39:12 PM 38.0278 -97.8600 84° East 446 513 35,000  Level Kansas City Center
Tue 02:40:14 PM 38.0436 -97.6931 83° East 446 513 35,000  Level Kansas City Center
Tue 02:41:16 PM 38.0569 -97.5383 84° East 444 511 35,000  Level Kansas City Center
Tue 02:42:18 PM 38.0706 -97.3800 84° East 443 510 35,000  Level Kansas City Center
Tue 02:43:20 PM 38.0831 -97.2242 84° East 444 511 35,000  Level Kansas City Center
Tue 02:44:22 PM 38.0958 -97.0678 84° East 444 511 35,000  Level Kansas City Center
Tue 02:45:24 PM 38.1075 -96.9131 84° East 442 509 35,000  Level Kansas City Center
Tue 02:46:26 PM 38.1194 -96.7581 84° East 441 507 35,000  Level Kansas City Center
Tue 02:47:28 PM 38.1342 -96.5725 84° East 441 507 35,000  Level Kansas City Center
Tue 02:48:30 PM 38.1450 -96.4189 85° East 437 503 35,000  Level Kansas City Center
Tue 02:49:32 PM 38.1567 -96.2647 84° East 439 505 35,000  Level Kansas City Center
Tue 02:50:34 PM 38.1686 -96.0931 85° East 437 503 35,000  Level Kansas City Center
Tue 02:51:36 PM 38.1794 -95.9481 85° East 434 499 35,000  Level Kansas City Center
Tue 02:52:39 PM 38.1911 -95.7772 85° East 437 503 35,000  Level Kansas City Center
Tue 02:53:40 PM 38.2014 -95.6314 85° East 434 499 35,000  Level Kansas City Center
Tue 02:54:42 PM 38.2106 -95.4847 85° East 435 501 35,000  Level Kansas City Center
Tue 02:55:44 PM 38.2217 -95.3142 85° East 436 502 35,000  Level Kansas City Center
Tue 02:56:46 PM 38.2317 -95.1653 85° East 439 505 35,000  Level Kansas City Center
Tue 02:57:48 PM 38.2425 -94.9969 85° East 435 501 35,000  Level Kansas City Center
Tue 02:58:50 PM 38.2503 -94.8522 86° East 433 498 35,000  Level Kansas City Center
Tue 02:59:54 PM 38.2614 -94.6819 85° East 433 498 35,000  Level Kansas City Center
Tue 03:00:56 PM 38.2722 -94.5128 85° East 432 497 35,000  Level Kansas City Center
Tue 03:01:58 PM 38.2914 -94.3711 80° East 430 495 35,000 -290 Level Kansas City Center
Tue 03:03:00 PM 38.3197 -94.2053 78° East 427 491 34,400 -912 Descending Kansas City Center
Tue 03:04:03 PM 38.3425 -94.0536 79° East 427 491 33,100 -1,104 Descending Kansas City Center
Tue 03:05:05 PM 38.3656 -93.9094 78° East 419 482 32,100 -919 Descending Kansas City Center
Tue 03:06:07 PM 38.3906 -93.7667 77° East 413 475 31,200 -532 Descending Kansas City Center
Tue 03:07:09 PM 38.4119 -93.6194 79° East 419 482 31,000 -97 Descending Kansas City Center
Tue 03:08:11 PM 38.4347 -93.4700 79° East 425 489 31,000  Level Kansas City Center
Tue 03:09:13 PM 38.4583 -93.3181 79° East 431 496 31,000  Level Kansas City Center
Tue 03:10:15 PM 38.4825 -93.1681 78° East 431 496 31,000  Level Kansas City Center
Tue 03:11:17 PM 38.5114 -92.9886 78° East 429 494 31,000  Level Kansas City Center
Tue 03:12:19 PM 38.5331 -92.8394 79° East 426 490 31,000  Level Kansas City Center
Tue 03:13:21 PM 38.5550 -92.6894 79° East 426 490 31,000  Level Kansas City Center
Tue 03:14:23 PM 38.5778 -92.5381 79° East 428 493 31,000 -677 Level Kansas City Center
Tue 03:15:25 PM 38.5997 -92.3869 79° East 430 495 29,600 -1,839 Descending Kansas City Center
Tue 03:16:27 PM 38.6208 -92.2361 80° East 428 493 27,200 -2,177 Descending Kansas City Center
Tue 03:17:29 PM 38.6425 -92.0942 79° East 416 479 25,100 -2,032 Descending Kansas City Center
Tue 03:18:31 PM 38.6625 -91.9547 80° East 407 468 23,000 -2,274 Descending Kansas City Center
Tue 03:19:33 PM 38.6858 -91.7850 80° East 402 463 20,400 -2,274 Descending Kansas City Center
Tue 03:20:35 PM 38.6931 -91.6483 86° East 393 452 18,300 -2,081 Descending Kansas City Center
Tue 03:21:37 PM 38.6925 -91.5139 90° East 382 440 16,100 -1,984 Descending Kansas City Center
Tue 03:22:39 PM 38.6925 -91.3833 90° East 370 426 14,200 -1,887 Descending Kansas City Center
Tue 03:23:41 PM 38.6942 -91.2639 89° East 356 410 12,200 -1,839 Descending Kansas City Center
Tue 03:24:43 PM 38.6939 -91.1428 90° East 346 398 10,400 -1,452 Descending Kansas City Center
Tue 03:25:45 PM 38.7325 -91.0194 68° East 318 366 9,200 -1,161 Descending Kansas City Center
Tue 03:26:47 PM 38.7586 -90.9156 72° East 307 353 8,000 -1,258 Descending Kansas City Center
Tue 03:27:49 PM 38.7844 -90.8150 72° East 301 346 6,600 -1,403 Descending Kansas City Center
Tue 03:28:51 PM 38.8169 -90.7233 66° East 288 331 5,100 -1,403 Descending Kansas City Center
Tue 03:29:53 PM 38.8547 -90.6319 62° Northeast 288 331 3,700 -1,016 Descending Kansas City Center
Tue 03:30:55 PM 38.8369 -90.5472 105° East 269 310 3,000 -677 Descending Kansas City Center
Tue 03:31:57 PM 38.8033 -90.4803 123° Southeast 241 277 2,300 -823 Descending Kansas City Center
Tue 03:32:59 PM 38.7750 -90.4222 122° Southeast 214 246 1,300 -823 Descending Kansas City Center
Tue 03:34:01 PM 38.7547 -90.3794 121° Southeast 167 192 600 -677 Descending Kansas City Center
Tue 03:36:00 PM 38.7487 -90.3700 180° South  Level Estimated

Login

Don't have an account? Register now (free) for customized features, flight alerts, and more!